Terminal Aerodrome Forecast
Issued by NWS

Home | Current Version | Previous Version | Text Only | Print | Product List | Glossary On
Versions: 1 2 3 4 5 6 7 8 9 10 11 12
000
FTUS42 KTBW 031751
TAFPGD
TAF
KPGD 031751Z 0318/0418 VRB06KT P6SM VCTS BKN040CB BKN150
      TEMPO 0320/0324 VRB15G25KT 3SM TSRA BKN030CB
     FM040100 11004KT P6SM FEW050 BKN250
     FM041500 17007KT P6SM SCT035 SCT150=

USA.gov is the U.S. government's official web portal to all federal, state and local government web resources and services.